sensor_id;sensor_type;location;lat;lon;timestamp;temperature;humidity
78479;SHT31;67769;51.972;5.668;2024-03-02T17:07:38;13.1;58.5
78479;SHT31;67769;51.972;5.668;2024-03-02T17:10:07;13.1;58.4
78479;SHT31;67769;51.972;5.668;2024-03-02T17:12:36;13.2;58.2
78479;SHT31;67769;51.972;5.668;2024-03-02T17:15:05;13.2;58.0
78479;SHT31;67769;51.972;5.668;2024-03-02T17:17:34;13.3;58.1
78479;SHT31;67769;51.972;5.668;2024-03-02T17:20:04;13.3;58.0
78479;SHT31;67769;51.972;5.668;2024-03-02T17:22:35;13.3;57.9
78479;SHT31;67769;51.972;5.668;2024-03-02T17:25:04;13.3;57.9
78479;SHT31;67769;51.972;5.668;2024-03-02T17:27:33;13.3;58.1
78479;SHT31;67769;51.972;5.668;2024-03-02T17:30:01;13.3;57.9
78479;SHT31;67769;51.972;5.668;2024-03-02T17:32:30;13.3;58.0
78479;SHT31;67769;51.972;5.668;2024-03-02T17:34:59;13.3;57.9
78479;SHT31;67769;51.972;5.668;2024-03-02T17:37:28;13.2;57.8
78479;SHT31;67769;51.972;5.668;2024-03-02T17:39:58;13.2;57.8
78479;SHT31;67769;51.972;5.668;2024-03-02T17:42:26;13.2;57.9
78479;SHT31;67769;51.972;5.668;2024-03-02T17:44:55;13.2;58.2
78479;SHT31;67769;51.972;5.668;2024-03-02T17:47:24;13.2;57.9
78479;SHT31;67769;51.972;5.668;2024-03-02T17:49:52;13.2;57.7
78479;SHT31;67769;51.972;5.668;2024-03-02T17:52:21;13.3;57.9
78479;SHT31;67769;51.972;5.668;2024-03-02T17:54:50;13.2;57.7
78479;SHT31;67769;51.972;5.668;2024-03-02T17:57:19;13.2;57.8
78479;SHT31;67769;51.972;5.668;2024-03-02T17:59:49;13.2;57.8
78479;SHT31;67769;51.972;5.668;2024-03-02T18:02:17;13.2;57.7
78479;SHT31;67769;51.972;5.668;2024-03-02T18:04:46;13.2;57.7
78479;SHT31;67769;51.972;5.668;2024-03-02T18:07:14;13.2;57.7
78479;SHT31;67769;51.972;5.668;2024-03-02T18:09:43;13.2;57.7
78479;SHT31;67769;51.972;5.668;2024-03-02T18:12:12;13.2;58.0
78479;SHT31;67769;51.972;5.668;2024-03-02T18:14:41;13.2;57.9
78479;SHT31;67769;51.972;5.668;2024-03-02T18:17:10;13.2;58.0
78479;SHT31;67769;51.972;5.668;2024-03-02T18:19:38;13.2;58.1
78479;SHT31;67769;51.972;5.668;2024-03-02T18:22:07;13.2;58.0
78479;SHT31;67769;51.972;5.668;2024-03-02T18:24:37;13.2;57.9
78479;SHT31;67769;51.972;5.668;2024-03-02T18:27:06;13.2;57.8
78479;SHT31;67769;51.972;5.668;2024-03-02T18:29:36;13.3;57.3
78479;SHT31;67769;51.972;5.668;2024-03-02T18:32:05;13.3;57.4
78479;SHT31;67769;51.972;5.668;2024-03-02T18:34:34;13.3;57.2
78479;SHT31;67769;51.972;5.668;2024-03-02T18:37:02;13.3;57.1
78479;SHT31;67769;51.972;5.668;2024-03-02T18:39:32;13.3;57.3
78479;SHT31;67769;51.972;5.668;2024-03-02T18:42:02;13.3;57.0
78479;SHT31;67769;51.972;5.668;2024-03-02T18:44:30;13.3;56.7
78479;SHT31;67769;51.972;5.668;2024-03-02T18:47:00;13.3;57.0
78479;SHT31;67769;51.972;5.668;2024-03-02T18:49:28;13.3;56.8
78479;SHT31;67769;51.972;5.668;2024-03-02T18:51:57;13.3;56.6
78479;SHT31;67769;51.972;5.668;2024-03-02T18:54:25;13.3;56.4
78479;SHT31;67769;51.972;5.668;2024-03-02T18:56:56;13.4;56.4
78479;SHT31;67769;51.972;5.668;2024-03-02T18:59:24;13.4;56.2
78479;SHT31;67769;51.972;5.668;2024-03-02T19:01:53;13.4;56.3
78479;SHT31;67769;51.972;5.668;2024-03-02T19:04:21;13.4;55.8
78479;SHT31;67769;51.972;5.668;2024-03-02T19:06:52;13.4;56.2
78479;SHT31;67769;51.972;5.668;2024-03-02T19:09:21;13.4;55.7
78479;SHT31;67769;51.972;5.668;2024-03-02T19:11:50;13.4;55.8
78479;SHT31;67769;51.972;5.668;2024-03-02T19:14:18;13.4;55.4
78479;SHT31;67769;51.972;5.668;2024-03-02T19:16:47;13.4;55.2
78479;SHT31;67769;51.972;5.668;2024-03-02T19:19:15;13.4;55.2
78479;SHT31;67769;51.972;5.668;2024-03-02T19:21:46;13.4;55.4
78479;SHT31;67769;51.972;5.668;2024-03-02T19:24:14;13.4;55.2
78479;SHT31;67769;51.972;5.668;2024-03-02T19:26:43;13.4;55.6
78479;SHT31;67769;51.972;5.668;2024-03-02T19:29:12;13.4;55.5
78479;SHT31;67769;51.972;5.668;2024-03-02T19:31:40;13.3;55.5
78479;SHT31;67769;51.972;5.668;2024-03-02T19:34:09;13.3;55.7
78479;SHT31;67769;51.972;5.668;2024-03-02T19:36:37;13.3;55.8
78479;SHT31;67769;51.972;5.668;2024-03-02T19:39:06;13.3;56.0
78479;SHT31;67769;51.972;5.668;2024-03-02T19:41:37;13.2;55.9
78479;SHT31;67769;51.972;5.668;2024-03-02T19:44:06;13.2;55.9
78479;SHT31;67769;51.972;5.668;2024-03-02T19:46:34;13.2;55.9
78479;SHT31;67769;51.972;5.668;2024-03-02T19:49:03;13.2;56.3
78479;SHT31;67769;51.972;5.668;2024-03-02T19:51:31;13.2;56.0
78479;SHT31;67769;51.972;5.668;2024-03-02T19:54:02;13.1;55.9
78479;SHT31;67769;51.972;5.668;2024-03-02T19:56:31;13.1;56.0
78479;SHT31;67769;51.972;5.668;2024-03-02T19:59:03;13.1;55.9
78479;SHT31;67769;51.972;5.668;2024-03-02T20:01:32;13.1;55.8
78479;SHT31;67769;51.972;5.668;2024-03-02T20:04:01;13.1;55.7
78479;SHT31;67769;51.972;5.668;2024-03-02T20:06:29;13.1;55.9
78479;SHT31;67769;51.972;5.668;2024-03-02T20:08:58;13.1;55.7
78479;SHT31;67769;51.972;5.668;2024-03-02T20:11:30;13.1;55.9
78479;SHT31;67769;51.972;5.668;2024-03-02T20:14:00;13.1;56.0
78479;SHT31;67769;51.972;5.668;2024-03-02T20:16:28;13.1;55.9
78479;SHT31;67769;51.972;5.668;2024-03-02T20:18:57;13.1;56.0
78479;SHT31;67769;51.972;5.668;2024-03-02T20:21:25;13.1;55.9
78479;SHT31;67769;51.972;5.668;2024-03-02T20:23:55;13.0;56.1
78479;SHT31;67769;51.972;5.668;2024-03-02T20:26:24;13.0;56.0
78479;SHT31;67769;51.972;5.668;2024-03-02T20:28:54;13.0;56.1
78479;SHT31;67769;51.972;5.668;2024-03-02T20:31:23;13.0;56.2
78479;SHT31;67769;51.972;5.668;2024-03-02T20:33:52;12.9;56.4
78479;SHT31;67769;51.972;5.668;2024-03-02T20:36:21;12.9;56.6
78479;SHT31;67769;51.972;5.668;2024-03-02T20:38:50;12.9;56.8
78479;SHT31;67769;51.972;5.668;2024-03-02T20:41:19;12.8;56.8
78479;SHT31;67769;51.972;5.668;2024-03-02T20:43:48;12.8;56.9
78479;SHT31;67769;51.972;5.668;2024-03-02T20:46:19;12.8;57.2
78479;SHT31;67769;51.972;5.668;2024-03-02T20:48:50;12.7;57.3
78479;SHT31;67769;51.972;5.668;2024-03-02T20:51:19;12.7;57.6
78479;SHT31;67769;51.972;5.668;2024-03-02T20:53:47;12.7;57.7
78479;SHT31;67769;51.972;5.668;2024-03-02T20:56:16;12.6;57.8
78479;SHT31;67769;51.972;5.668;2024-03-02T20:58:44;12.6;57.8
78479;SHT31;67769;51.972;5.668;2024-03-02T21:01:13;12.5;57.9
78479;SHT31;67769;51.972;5.668;2024-03-02T21:03:42;12.5;57.8
78479;SHT31;67769;51.972;5.668;2024-03-02T21:06:11;12.5;57.9
78479;SHT31;67769;51.972;5.668;2024-03-02T21:08:40;12.4;57.9
78479;SHT31;67769;51.972;5.668;2024-03-02T21:11:08;12.4;58.1
78479;SHT31;67769;51.972;5.668;2024-03-02T21:13:39;12.4;58.1
78479;SHT31;67769;51.972;5.668;2024-03-02T21:16:08;12.4;58.0
78479;SHT31;67769;51.972;5.668;2024-03-02T21:18:37;12.4;58.0
78479;SHT31;67769;51.972;5.668;2024-03-02T21:21:07;12.4;58.0
78479;SHT31;67769;51.972;5.668;2024-03-02T21:23:36;12.4;58.0
78479;SHT31;67769;51.972;5.668;2024-03-02T21:26:06;12.5;58.0
78479;SHT31;67769;51.972;5.668;2024-03-02T21:28:35;12.5;57.7
78479;SHT31;67769;51.972;5.668;2024-03-02T21:31:06;12.5;57.6
78479;SHT31;67769;51.972;5.668;2024-03-02T21:33:34;12.6;57.5
78479;SHT31;67769;51.972;5.668;2024-03-02T21:36:04;12.6;56.9
78479;SHT31;67769;51.972;5.668;2024-03-02T21:38:33;12.6;57.2
78479;SHT31;67769;51.972;5.668;2024-03-02T21:41:01;12.7;56.9
78479;SHT31;67769;51.972;5.668;2024-03-02T21:43:30;12.7;56.8
78479;SHT31;67769;51.972;5.668;2024-03-02T21:46:00;12.8;57.0
78479;SHT31;67769;51.972;5.668;2024-03-02T21:48:31;12.8;56.7
78479;SHT31;67769;51.972;5.668;2024-03-02T21:50:59;12.8;56.5
78479;SHT31;67769;51.972;5.668;2024-03-02T21:53:29;12.8;56.5
78479;SHT31;67769;51.972;5.668;2024-03-02T21:55:58;12.8;56.5
78479;SHT31;67769;51.972;5.668;2024-03-02T21:58:26;12.8;56.6
78479;SHT31;67769;51.972;5.668;2024-03-02T22:00:55;12.8;56.6
78479;SHT31;67769;51.972;5.668;2024-03-02T22:03:23;12.8;56.7
78479;SHT31;67769;51.972;5.668;2024-03-02T22:05:52;12.8;56.5
78479;SHT31;67769;51.972;5.668;2024-03-02T22:08:21;12.8;56.7
78479;SHT31;67769;51.972;5.668;2024-03-02T22:10:49;12.8;56.7
78479;SHT31;67769;51.972;5.668;2024-03-02T22:13:18;12.8;56.7
78479;SHT31;67769;51.972;5.668;2024-03-02T22:15:46;12.8;57.0
78479;SHT31;67769;51.972;5.668;2024-03-02T22:18:15;12.8;56.7
78479;SHT31;67769;51.972;5.668;2024-03-02T22:20:43;12.8;56.8
78479;SHT31;67769;51.972;5.668;2024-03-02T22:23:13;12.8;56.8
78479;SHT31;67769;51.972;5.668;2024-03-02T22:25:42;12.8;56.8
78479;SHT31;67769;51.972;5.668;2024-03-02T22:28:12;12.8;56.8
78479;SHT31;67769;51.972;5.668;2024-03-02T22:30:41;12.8;56.7
78479;SHT31;67769;51.972;5.668;2024-03-02T22:33:10;12.8;56.4
78479;SHT31;67769;51.972;5.668;2024-03-02T22:35:39;12.8;56.5
78479;SHT31;67769;51.972;5.668;2024-03-02T22:38:08;12.8;56.6
78479;SHT31;67769;51.972;5.668;2024-03-02T22:40:38;12.8;56.7
78479;SHT31;67769;51.972;5.668;2024-03-02T22:43:07;12.8;56.5
78479;SHT31;67769;51.972;5.668;2024-03-02T22:45:35;12.8;56.3
78479;SHT31;67769;51.972;5.668;2024-03-02T22:48:04;12.8;56.3
78479;SHT31;67769;51.972;5.668;2024-03-02T22:50:35;12.8;56.4
78479;SHT31;67769;51.972;5.668;2024-03-02T22:53:04;12.8;56.2
78479;SHT31;67769;51.972;5.668;2024-03-02T22:55:32;12.8;56.4
78479;SHT31;67769;51.972;5.668;2024-03-02T22:58:01;12.8;56.4
78479;SHT31;67769;51.972;5.668;2024-03-02T23:00:30;12.8;56.4
78479;SHT31;67769;51.972;5.668;2024-03-02T23:03:07;12.9;56.3
78479;SHT31;67769;51.972;5.668;2024-03-02T23:05:35;12.9;56.3
78479;SHT31;67769;51.972;5.668;2024-03-02T23:08:05;12.9;56.5
78479;SHT31;67769;51.972;5.668;2024-03-02T23:10:34;12.9;56.4
78479;SHT31;67769;51.972;5.668;2024-03-02T23:13:05;12.9;56.4
78479;SHT31;67769;51.972;5.668;2024-03-02T23:15:34;12.9;56.7
78479;SHT31;67769;51.972;5.668;2024-03-02T23:18:02;12.9;56.5
78479;SHT31;67769;51.972;5.668;2024-03-02T23:20:31;12.8;56.6
78479;SHT31;67769;51.972;5.668;2024-03-02T23:23:02;12.8;56.7
78479;SHT31;67769;51.972;5.668;2024-03-02T23:25:32;12.8;56.6
78479;SHT31;67769;51.972;5.668;2024-03-02T23:28:01;12.8;56.6
78479;SHT31;67769;51.972;5.668;2024-03-02T23:30:33;12.8;56.7
78479;SHT31;67769;51.972;5.668;2024-03-02T23:33:03;12.8;56.8
78479;SHT31;67769;51.972;5.668;2024-03-02T23:35:32;12.8;56.9
78479;SHT31;67769;51.972;5.668;2024-03-02T23:38:03;12.8;57.0
78479;SHT31;67769;51.972;5.668;2024-03-02T23:40:32;12.8;57.1
78479;SHT31;67769;51.972;5.668;2024-03-02T23:43:43;12.8;57.1
78479;SHT31;67769;51.972;5.668;2024-03-02T23:46:11;12.8;57.1
78479;SHT31;67769;51.972;5.668;2024-03-02T23:48:40;12.8;57.3
78479;SHT31;67769;51.972;5.668;2024-03-02T23:51:08;12.8;57.2
78479;SHT31;67769;51.972;5.668;2024-03-02T23:53:37;12.8;57.3
78479;SHT31;67769;51.972;5.668;2024-03-02T23:56:10;12.8;57.2
78479;SHT31;67769;51.972;5.668;2024-03-02T23:58:40;12.8;57.4
